createdAt,value
2023-04-02T00:00:08.173Z,6.53
2023-04-02T00:05:20.595Z,6.52
2023-04-02T00:10:00.714Z,6.53
2023-04-02T00:15:00.766Z,6.52
2023-04-02T00:20:04.311Z,6.52
2023-04-02T00:25:11.205Z,6.50
2023-04-02T00:30:00.953Z,6.48
2023-04-02T00:35:01.337Z,6.43
2023-04-02T00:40:04.128Z,6.39
2023-04-02T00:45:01.679Z,6.30
2023-04-02T00:50:05.501Z,6.26
2023-04-02T00:55:07.848Z,6.19
2023-04-02T01:00:11.131Z,6.13
2023-04-02T01:05:13.169Z,6.10
2023-04-02T01:10:20.592Z,6.08
2023-04-02T01:15:10.605Z,6.04
2023-04-02T01:20:20.602Z,6.02
2023-04-02T01:25:02.065Z,6.01
2023-04-02T01:30:02.835Z,5.99
2023-04-02T01:35:00.805Z,5.97
2023-04-02T01:40:20.566Z,5.98
2023-04-02T01:45:12.613Z,5.94
2023-04-02T01:50:12.933Z,5.87
2023-04-02T01:55:01.416Z,5.81
2023-04-02T02:00:03.972Z,5.81
2023-04-02T02:05:00.906Z,5.81
2023-04-02T02:10:01.260Z,5.77
2023-04-02T02:15:01.364Z,5.76
2023-04-02T02:20:01.754Z,5.72
2023-04-02T02:25:04.787Z,5.71
2023-04-02T02:30:13.109Z,5.67
2023-04-02T02:35:11.344Z,5.64
2023-04-02T02:40:04.551Z,5.64
2023-04-02T02:45:05.966Z,5.64
2023-04-02T02:50:04.939Z,5.58
2023-04-02T02:55:03.695Z,5.54
2023-04-02T03:00:05.132Z,5.49
2023-04-02T03:05:00.915Z,5.47
2023-04-02T03:10:16.368Z,5.41
2023-04-02T03:15:15.357Z,5.34
2023-04-02T03:20:09.608Z,5.28
2023-04-02T03:25:20.570Z,5.24
2023-04-02T03:30:20.612Z,5.23
2023-04-02T03:35:15.152Z,5.25
2023-04-02T03:40:07.525Z,5.28
2023-04-02T03:45:03.962Z,5.33
2023-04-02T03:50:16.572Z,5.32
2023-04-02T03:55:08.423Z,5.33
2023-04-02T04:00:06.386Z,5.33
2023-04-02T04:05:02.706Z,5.28
2023-04-02T04:10:03.215Z,5.24
2023-04-02T04:15:11.705Z,5.22
2023-04-02T04:20:16.498Z,5.16
2023-04-02T04:25:05.568Z,5.08
2023-04-02T04:30:06.276Z,5.03
2023-04-02T04:35:06.413Z,5.01
2023-04-02T04:40:11.182Z,4.99
2023-04-02T04:45:20.575Z,5.03
2023-04-02T04:50:07.582Z,5.02
2023-04-02T04:55:01.125Z,4.96
2023-04-02T05:00:20.619Z,4.86
2023-04-02T05:05:02.556Z,4.72
2023-04-02T05:10:11.738Z,4.61
2023-04-02T05:15:11.668Z,4.56
2023-04-02T05:20:14.577Z,4.48
2023-04-02T05:25:14.179Z,4.43
2023-04-02T05:30:09.225Z,4.37
2023-04-02T05:35:01.437Z,4.35
2023-04-02T05:40:11.978Z,4.29
2023-04-02T05:45:12.725Z,4.19
2023-04-02T05:50:03.963Z,4.20
2023-04-02T05:55:05.204Z,4.20
2023-04-02T06:00:06.878Z,4.19
2023-04-02T06:05:11.122Z,4.15
2023-04-02T06:10:06.223Z,4.13
2023-04-02T06:15:00.855Z,4.17
2023-04-02T06:20:03.265Z,4.29
2023-04-02T06:25:07.833Z,4.38
2023-04-02T06:30:04.353Z,4.40
2023-04-02T06:35:00.736Z,4.42
2023-04-02T06:40:03.669Z,4.40
2023-04-02T06:45:01.190Z,4.41
2023-04-02T06:50:14.329Z,4.36
2023-04-02T06:55:14.358Z,4.42
2023-04-02T07:00:02.916Z,4.33
2023-04-02T07:05:03.616Z,4.21
2023-04-02T07:10:00.687Z,4.20
2023-04-02T07:15:00.702Z,4.17
2023-04-02T07:20:00.686Z,4.12
2023-04-02T07:25:00.723Z,4.12
2023-04-02T07:30:00.715Z,4.10
2023-04-02T07:35:01.112Z,4.10
2023-04-02T07:40:00.744Z,4.02
2023-04-02T07:45:00.750Z,3.87
2023-04-02T07:50:00.792Z,3.91
2023-04-02T07:55:00.695Z,4.04
2023-04-02T08:00:01.162Z,4.09
2023-04-02T08:05:00.706Z,4.14
2023-04-02T08:10:01.180Z,4.25
2023-04-02T08:15:01.220Z,4.47
2023-04-02T08:20:00.724Z,4.58
2023-04-02T08:25:00.759Z,4.65
2023-04-02T08:30:00.761Z,4.74
2023-04-02T08:35:00.776Z,4.90
2023-04-02T08:40:00.731Z,5.07
2023-04-02T08:45:23.662Z,5.05
2023-04-02T08:50:03.596Z,5.00
2023-04-02T08:55:01.970Z,4.99
2023-04-02T09:00:17.110Z,5.02
2023-04-02T09:05:04.780Z,4.94
2023-04-02T09:10:00.870Z,4.90
2023-04-02T09:15:20.595Z,4.82
2023-04-02T09:20:12.599Z,4.79
2023-04-02T09:25:03.279Z,4.93
2023-04-02T09:30:12.662Z,4.96
2023-04-02T09:35:15.115Z,5.02
2023-04-02T09:40:20.608Z,5.00
2023-04-02T09:45:12.293Z,4.98
2023-04-02T09:50:12.692Z,4.92
2023-04-02T09:55:13.919Z,4.83
2023-04-02T10:00:30.746Z,4.90
2023-04-02T10:05:03.692Z,5.06
2023-04-02T10:10:20.578Z,5.24
2023-04-02T10:15:02.812Z,5.47
2023-04-02T10:20:06.497Z,5.66
2023-04-02T10:25:00.749Z,5.92
2023-04-02T10:30:08.238Z,6.11
2023-04-02T10:35:07.383Z,6.43
2023-04-02T10:40:09.834Z,6.71
2023-04-02T10:45:20.579Z,6.67
2023-04-02T10:50:11.760Z,6.76
2023-04-02T10:55:04.786Z,7.47
2023-04-02T11:00:13.865Z,8.01
2023-04-02T11:05:15.195Z,9.60
2023-04-02T11:10:01.083Z,10.80
2023-04-02T11:15:01.741Z,11.86
2023-04-02T11:20:20.594Z,12.27
2023-04-02T11:25:01.837Z,12.73
2023-04-02T11:30:06.789Z,12.71
2023-04-02T11:35:12.804Z,12.21
2023-04-02T11:40:11.649Z,11.57
2023-04-02T11:45:21.111Z,12.07
2023-04-02T11:50:02.742Z,12.30
2023-04-02T11:55:04.454Z,12.69
2023-04-02T12:00:20.611Z,12.58
2023-04-02T12:05:08.675Z,12.48
2023-04-02T12:10:04.798Z,12.30
2023-04-02T12:15:00.942Z,12.51
2023-04-02T12:20:10.734Z,12.66
2023-04-02T12:25:16.240Z,12.61
2023-04-02T12:30:13.363Z,12.58
2023-04-02T12:35:02.113Z,12.27
2023-04-02T12:40:13.008Z,12.27
2023-04-02T12:45:03.213Z,12.53
2023-04-02T12:50:01.132Z,12.66
2023-04-02T12:55:01.945Z,12.36
2023-04-02T13:00:13.836Z,12.35
2023-04-02T13:05:01.040Z,12.52
2023-04-02T13:10:05.388Z,12.66
2023-04-02T13:15:03.305Z,12.68
2023-04-02T13:20:20.595Z,12.70
2023-04-02T13:25:00.666Z,12.74
2023-04-02T13:30:06.327Z,12.69
2023-04-02T13:35:00.690Z,12.87
2023-04-02T13:40:00.670Z,13.11
2023-04-02T13:45:00.765Z,13.09
2023-04-02T13:50:00.678Z,12.78
2023-04-02T13:55:01.278Z,12.47
2023-04-02T14:00:01.667Z,12.59
2023-04-02T14:05:20.516Z,12.76
2023-04-02T14:10:13.938Z,12.90
2023-04-02T14:15:17.110Z,13.01
2023-04-02T14:20:05.031Z,13.09
2023-04-02T14:25:18.220Z,13.12
2023-04-02T14:30:09.343Z,13.06
2023-04-02T14:35:01.713Z,13.26
2023-04-02T14:40:08.117Z,13.06
2023-04-02T14:45:06.831Z,12.92
2023-04-02T14:50:10.196Z,12.78
2023-04-02T14:55:04.098Z,12.70
2023-04-02T15:00:11.024Z,12.64
2023-04-02T15:05:08.737Z,12.67
2023-04-02T15:10:07.600Z,12.58
2023-04-02T15:15:10.675Z,12.46
2023-04-02T15:20:13.009Z,12.42
2023-04-02T15:25:10.649Z,12.26
2023-04-02T15:30:13.490Z,12.06
2023-04-02T15:35:16.717Z,12.11
2023-04-02T15:40:13.016Z,12.15
2023-04-02T15:45:10.729Z,12.14
2023-04-02T15:50:13.245Z,12.08
2023-04-02T15:55:12.985Z,11.93
2023-04-02T16:00:20.759Z,11.86
2023-04-02T16:05:09.977Z,11.68
2023-04-02T16:10:11.026Z,11.56
2023-04-02T16:15:13.527Z,11.59
2023-04-02T16:20:20.590Z,11.52
2023-04-02T16:25:12.323Z,11.34
2023-04-02T16:30:10.710Z,11.12
2023-04-02T16:40:11.634Z,10.84
2023-04-02T16:45:18.762Z,10.65
2023-04-02T16:50:11.179Z,10.56
2023-04-02T16:55:11.930Z,10.49
2023-04-02T17:00:19.599Z,10.48
2023-04-02T17:05:11.666Z,10.33
2023-04-02T17:10:16.891Z,10.17
2023-04-02T17:15:20.576Z,10.06
2023-04-02T17:20:00.812Z,9.97
2023-04-02T17:25:03.738Z,9.80
2023-04-02T17:30:16.408Z,9.60
2023-04-02T17:35:15.967Z,9.40
2023-04-02T17:40:20.571Z,9.22
2023-04-02T17:45:21.698Z,9.07
2023-04-02T17:50:11.619Z,8.96
2023-04-02T17:55:13.899Z,8.85
2023-04-02T18:00:16.949Z,8.75
2023-04-02T18:05:10.673Z,8.57
2023-04-02T18:10:06.269Z,8.45
2023-04-02T18:15:14.916Z,8.34
2023-04-02T18:20:06.706Z,8.21
2023-04-02T18:25:10.874Z,8.10
2023-04-02T18:30:13.604Z,8.02
2023-04-02T18:35:20.597Z,7.91
2023-04-02T18:40:04.981Z,7.80
2023-04-02T18:45:13.587Z,7.71
2023-04-02T18:50:03.922Z,7.61
2023-04-02T18:55:05.622Z,7.55
2023-04-02T19:00:14.113Z,7.50
2023-04-02T19:05:13.609Z,7.44
2023-04-02T19:10:10.595Z,7.42
2023-04-02T19:15:01.500Z,7.35
2023-04-02T19:20:13.914Z,7.31
2023-04-02T19:25:13.869Z,7.20
2023-04-02T19:30:20.590Z,7.24
2023-04-02T19:35:12.312Z,7.29
2023-04-02T19:40:08.341Z,7.27
2023-04-02T19:45:01.449Z,7.19
2023-04-02T19:50:00.719Z,7.10
2023-04-02T19:55:00.679Z,7.05
2023-04-02T20:00:01.193Z,6.99
2023-04-02T20:05:00.669Z,6.88
2023-04-02T20:10:00.735Z,6.77
2023-04-02T20:15:02.113Z,6.70
2023-04-02T20:20:00.664Z,6.63
2023-04-02T20:25:00.700Z,6.62
2023-04-02T20:30:00.818Z,6.60
2023-04-02T20:35:01.778Z,6.56
2023-04-02T20:40:00.747Z,6.48
2023-04-02T20:45:00.869Z,6.38
2023-04-02T20:50:00.697Z,6.34
2023-04-02T20:55:00.729Z,6.31
2023-04-02T21:00:01.223Z,6.30
2023-04-02T21:05:00.848Z,6.27
2023-04-02T21:10:00.710Z,6.22
2023-04-02T21:15:02.711Z,6.16
2023-04-02T21:20:00.702Z,6.08
2023-04-02T21:25:00.692Z,5.97
2023-04-02T21:30:00.708Z,5.84
2023-04-02T21:35:00.705Z,5.75
2023-04-02T21:40:00.752Z,5.68
2023-04-02T21:45:00.673Z,5.60
2023-04-02T21:50:00.690Z,5.52
2023-04-02T21:55:00.686Z,5.39
2023-04-02T22:00:03.324Z,5.29
2023-04-02T22:05:00.667Z,5.19
2023-04-02T22:10:00.700Z,5.12
2023-04-02T22:15:00.721Z,5.04
2023-04-02T22:20:00.694Z,4.94
2023-04-02T22:25:00.689Z,4.90
2023-04-02T22:30:00.677Z,4.82
2023-04-02T22:35:00.669Z,4.78
2023-04-02T22:40:00.681Z,4.70
2023-04-02T22:45:00.687Z,4.61
2023-04-02T22:50:00.693Z,4.54
2023-04-02T22:55:00.702Z,4.51
2023-04-02T23:00:01.099Z,4.44
2023-04-02T23:05:00.757Z,4.39
2023-04-02T23:10:00.769Z,4.33
2023-04-02T23:15:00.750Z,4.27
2023-04-02T23:20:00.691Z,4.20
2023-04-02T23:25:00.723Z,4.13
2023-04-02T23:30:00.696Z,4.05
2023-04-02T23:35:00.690Z,4.03
2023-04-02T23:40:00.695Z,3.96
2023-04-02T23:45:00.681Z,3.95
2023-04-02T23:50:00.773Z,3.90
2023-04-02T23:55:00.731Z,3.87
